sensor_id;sensor_type;location;lat;lon;timestamp;temperature;humidity
35240;DHT22;21376;50.954;4.716;2022-11-24T00:01:35;8.30;99.90
35240;DHT22;21376;50.954;4.716;2022-11-24T00:04:04;8.30;99.90
35240;DHT22;21376;50.954;4.716;2022-11-24T00:06:48;8.40;99.90
35240;DHT22;21376;50.954;4.716;2022-11-24T00:09:20;8.40;99.90
35240;DHT22;21376;50.954;4.716;2022-11-24T00:11:49;8.50;99.90
35240;DHT22;21376;50.954;4.716;2022-11-24T00:14:23;8.50;99.90
35240;DHT22;21376;50.954;4.716;2022-11-24T00:16:51;8.50;99.90
35240;DHT22;21376;50.954;4.716;2022-11-24T00:19:20;8.60;99.90
35240;DHT22;21376;50.954;4.716;2022-11-24T00:24:14;8.70;99.90
35240;DHT22;21376;50.954;4.716;2022-11-24T00:26:42;8.60;99.90
35240;DHT22;21376;50.954;4.716;2022-11-24T00:29:11;8.60;99.90
35240;DHT22;21376;50.954;4.716;2022-11-24T00:31:39;8.70;99.90
35240;DHT22;21376;50.954;4.716;2022-11-24T00:34:14;8.70;99.90
35240;DHT22;21376;50.954;4.716;2022-11-24T00:41:31;8.70;99.90
35240;DHT22;21376;50.954;4.716;2022-11-24T00:43:57;8.60;99.90
35240;DHT22;21376;50.954;4.716;2022-11-24T00:46:23;8.60;99.90
35240;DHT22;21376;50.954;4.716;2022-11-24T00:54:15;8.50;99.90
35240;DHT22;21376;50.954;4.716;2022-11-24T01:04:11;8.60;99.90
35240;DHT22;21376;50.954;4.716;2022-11-24T01:06:36;8.40;99.90
35240;DHT22;21376;50.954;4.716;2022-11-24T01:09:05;8.50;99.90
35240;DHT22;21376;50.954;4.716;2022-11-24T01:17:12;8.50;99.90
35240;DHT22;21376;50.954;4.716;2022-11-24T01:22:15;8.60;99.90
35240;DHT22;21376;50.954;4.716;2022-11-24T01:24:42;8.70;99.90
35240;DHT22;21376;50.954;4.716;2022-11-24T01:27:09;8.70;99.90
35240;DHT22;21376;50.954;4.716;2022-11-24T01:29:38;8.70;99.90
35240;DHT22;21376;50.954;4.716;2022-11-24T01:32:03;8.70;99.90
35240;DHT22;21376;50.954;4.716;2022-11-24T01:34:30;8.70;99.90
35240;DHT22;21376;50.954;4.716;2022-11-24T01:36:57;8.70;99.90
35240;DHT22;21376;50.954;4.716;2022-11-24T01:41:54;8.80;99.90
35240;DHT22;21376;50.954;4.716;2022-11-24T01:44:27;8.80;99.90
35240;DHT22;21376;50.954;4.716;2022-11-24T01:46:59;8.70;99.90
35240;DHT22;21376;50.954;4.716;2022-11-24T01:54:52;8.90;99.90
35240;DHT22;21376;50.954;4.716;2022-11-24T01:59:47;8.80;99.90
35240;DHT22;21376;50.954;4.716;2022-11-24T02:02:26;8.90;99.90
35240;DHT22;21376;50.954;4.716;2022-11-24T02:04:53;9.00;99.90
35240;DHT22;21376;50.954;4.716;2022-11-24T02:07:21;9.10;99.90
35240;DHT22;21376;50.954;4.716;2022-11-24T02:09:50;9.10;99.90
35240;DHT22;21376;50.954;4.716;2022-11-24T02:15:04;9.20;99.90
35240;DHT22;21376;50.954;4.716;2022-11-24T02:17:40;9.00;99.90
35240;DHT22;21376;50.954;4.716;2022-11-24T02:20:12;9.10;99.90
35240;DHT22;21376;50.954;4.716;2022-11-24T02:30:35;9.10;99.90
35240;DHT22;21376;50.954;4.716;2022-11-24T02:35:32;9.20;99.90
35240;DHT22;21376;50.954;4.716;2022-11-24T02:38:11;9.20;99.90
35240;DHT22;21376;50.954;4.716;2022-11-24T02:40:40;9.10;99.90
35240;DHT22;21376;50.954;4.716;2022-11-24T02:43:10;9.20;99.90
35240;DHT22;21376;50.954;4.716;2022-11-24T02:45:41;9.20;99.90
35240;DHT22;21376;50.954;4.716;2022-11-24T02:48:08;9.30;99.90
35240;DHT22;21376;50.954;4.716;2022-11-24T02:50:40;9.40;99.90
35240;DHT22;21376;50.954;4.716;2022-11-24T02:55:42;9.40;99.90
35240;DHT22;21376;50.954;4.716;2022-11-24T02:58:11;9.60;99.90
35240;DHT22;21376;50.954;4.716;2022-11-24T03:00:45;9.60;99.90
35240;DHT22;21376;50.954;4.716;2022-11-24T03:11:07;9.70;99.90
35240;DHT22;21376;50.954;4.716;2022-11-24T03:13:41;9.70;99.90
35240;DHT22;21376;50.954;4.716;2022-11-24T03:16:08;9.70;99.90
35240;DHT22;21376;50.954;4.716;2022-11-24T03:18:34;9.70;99.90
35240;DHT22;21376;50.954;4.716;2022-11-24T03:21:06;9.80;99.90
35240;DHT22;21376;50.954;4.716;2022-11-24T03:26:16;9.70;99.90
35240;DHT22;21376;50.954;4.716;2022-11-24T03:31:23;9.70;99.90
35240;DHT22;21376;50.954;4.716;2022-11-24T03:33:52;9.60;99.90
35240;DHT22;21376;50.954;4.716;2022-11-24T03:36:24;9.50;99.90
35240;DHT22;21376;50.954;4.716;2022-11-24T03:38:50;9.40;99.90
35240;DHT22;21376;50.954;4.716;2022-11-24T03:41:17;9.40;99.90
35240;DHT22;21376;50.954;4.716;2022-11-24T03:43:45;9.20;99.90
35240;DHT22;21376;50.954;4.716;2022-11-24T03:46:17;9.20;99.90
35240;DHT22;21376;50.954;4.716;2022-11-24T03:48:43;9.20;99.90
35240;DHT22;21376;50.954;4.716;2022-11-24T03:51:10;9.30;99.90
35240;DHT22;21376;50.954;4.716;2022-11-24T03:53:39;9.30;99.90
35240;DHT22;21376;50.954;4.716;2022-11-24T03:56:11;9.30;99.90
35240;DHT22;21376;50.954;4.716;2022-11-24T03:58:47;9.30;99.90
35240;DHT22;21376;50.954;4.716;2022-11-24T04:01:15;9.40;99.90
35240;DHT22;21376;50.954;4.716;2022-11-24T04:03:42;9.20;99.90
35240;DHT22;21376;50.954;4.716;2022-11-24T04:08:47;9.10;99.90
35240;DHT22;21376;50.954;4.716;2022-11-24T04:16:09;8.90;99.90
35240;DHT22;21376;50.954;4.716;2022-11-24T04:18:40;8.90;99.90
35240;DHT22;21376;50.954;4.716;2022-11-24T04:21:10;8.80;99.90
35240;DHT22;21376;50.954;4.716;2022-11-24T04:26:30;8.50;99.90
35240;DHT22;21376;50.954;4.716;2022-11-24T04:31:25;8.60;99.90
35240;DHT22;21376;50.954;4.716;2022-11-24T04:38:57;8.50;99.90
35240;DHT22;21376;50.954;4.716;2022-11-24T04:43:55;8.50;99.90
35240;DHT22;21376;50.954;4.716;2022-11-24T04:48:54;8.50;99.90
35240;DHT22;21376;50.954;4.716;2022-11-24T04:53:51;8.60;99.90
35240;DHT22;21376;50.954;4.716;2022-11-24T04:56:20;8.50;99.90
35240;DHT22;21376;50.954;4.716;2022-11-24T04:58:49;8.50;99.90
35240;DHT22;21376;50.954;4.716;2022-11-24T05:01:20;8.50;99.90
35240;DHT22;21376;50.954;4.716;2022-11-24T05:03:53;8.40;99.90
35240;DHT22;21376;50.954;4.716;2022-11-24T05:06:25;8.30;99.90
35240;DHT22;21376;50.954;4.716;2022-11-24T05:08:54;8.20;99.90
35240;DHT22;21376;50.954;4.716;2022-11-24T05:11:21;8.20;99.90
35240;DHT22;21376;50.954;4.716;2022-11-24T05:13:46;8.20;99.90
35240;DHT22;21376;50.954;4.716;2022-11-24T05:16:12;8.20;99.90
35240;DHT22;21376;50.954;4.716;2022-11-24T05:18:39;8.30;99.90
35240;DHT22;21376;50.954;4.716;2022-11-24T05:21:05;8.30;99.90
35240;DHT22;21376;50.954;4.716;2022-11-24T05:23:42;8.30;99.90
35240;DHT22;21376;50.954;4.716;2022-11-24T05:28:38;8.20;99.90
35240;DHT22;21376;50.954;4.716;2022-11-24T05:33:54;8.20;99.90
35240;DHT22;21376;50.954;4.716;2022-11-24T05:36:21;8.20;99.90
35240;DHT22;21376;50.954;4.716;2022-11-24T05:39:12;8.20;99.90
35240;DHT22;21376;50.954;4.716;2022-11-24T05:41:41;8.30;99.90
35240;DHT22;21376;50.954;4.716;2022-11-24T05:44:08;8.40;99.90
35240;DHT22;21376;50.954;4.716;2022-11-24T05:46:38;8.30;99.90
35240;DHT22;21376;50.954;4.716;2022-11-24T05:51:36;8.20;99.90
35240;DHT22;21376;50.954;4.716;2022-11-24T05:54:08;8.20;99.90
35240;DHT22;21376;50.954;4.716;2022-11-24T05:56:45;8.20;99.90
35240;DHT22;21376;50.954;4.716;2022-11-24T05:59:14;8.10;99.90
35240;DHT22;21376;50.954;4.716;2022-11-24T06:01:41;8.20;99.90
35240;DHT22;21376;50.954;4.716;2022-11-24T06:04:10;8.20;99.90
35240;DHT22;21376;50.954;4.716;2022-11-24T06:06:54;8.20;99.90
35240;DHT22;21376;50.954;4.716;2022-11-24T06:09:22;8.10;99.90
35240;DHT22;21376;50.954;4.716;2022-11-24T06:11:49;8.10;99.90
35240;DHT22;21376;50.954;4.716;2022-11-24T06:14:27;8.00;99.90
35240;DHT22;21376;50.954;4.716;2022-11-24T06:16:55;8.10;99.90
35240;DHT22;21376;50.954;4.716;2022-11-24T06:19:24;8.00;99.90
35240;DHT22;21376;50.954;4.716;2022-11-24T06:21:53;8.00;99.90
35240;DHT22;21376;50.954;4.716;2022-11-24T06:24:21;8.00;99.90
35240;DHT22;21376;50.954;4.716;2022-11-24T06:26:47;8.00;99.90
35240;DHT22;21376;50.954;4.716;2022-11-24T06:29:14;8.00;99.90
35240;DHT22;21376;50.954;4.716;2022-11-24T06:31:43;8.00;99.90
35240;DHT22;21376;50.954;4.716;2022-11-24T06:34:15;8.00;99.90
35240;DHT22;21376;50.954;4.716;2022-11-24T06:36:43;8.00;99.90
35240;DHT22;21376;50.954;4.716;2022-11-24T06:39:11;8.00;99.90
35240;DHT22;21376;50.954;4.716;2022-11-24T06:41:39;8.00;99.90
35240;DHT22;21376;50.954;4.716;2022-11-24T06:44:05;8.00;99.90
35240;DHT22;21376;50.954;4.716;2022-11-24T06:46:33;8.00;99.90
35240;DHT22;21376;50.954;4.716;2022-11-24T06:48:58;7.90;99.90
35240;DHT22;21376;50.954;4.716;2022-11-24T06:51:27;7.90;99.90
35240;DHT22;21376;50.954;4.716;2022-11-24T06:53:53;7.90;99.90
35240;DHT22;21376;50.954;4.716;2022-11-24T06:56:19;7.80;99.90
35240;DHT22;21376;50.954;4.716;2022-11-24T06:58:49;7.90;99.90
35240;DHT22;21376;50.954;4.716;2022-11-24T07:01:23;7.90;99.90
35240;DHT22;21376;50.954;4.716;2022-11-24T07:03:49;7.90;99.90
35240;DHT22;21376;50.954;4.716;2022-11-24T07:08:46;7.90;99.90
35240;DHT22;21376;50.954;4.716;2022-11-24T07:11:21;7.90;99.90
35240;DHT22;21376;50.954;4.716;2022-11-24T07:13:47;7.80;99.90
35240;DHT22;21376;50.954;4.716;2022-11-24T07:16:20;7.80;99.90
35240;DHT22;21376;50.954;4.716;2022-11-24T07:18:48;7.90;99.90
35240;DHT22;21376;50.954;4.716;2022-11-24T07:23:54;7.80;99.90
35240;DHT22;21376;50.954;4.716;2022-11-24T07:26:23;7.80;99.90
35240;DHT22;21376;50.954;4.716;2022-11-24T07:33:49;7.90;99.90
35240;DHT22;21376;50.954;4.716;2022-11-24T07:36:20;7.90;99.90
35240;DHT22;21376;50.954;4.716;2022-11-24T07:38:50;7.90;99.90
35240;DHT22;21376;50.954;4.716;2022-11-24T07:41:19;7.90;99.90
35240;DHT22;21376;50.954;4.716;2022-11-24T07:54:53;8.10;99.90
35240;DHT22;21376;50.954;4.716;2022-11-24T07:57:37;8.20;99.90
35240;DHT22;21376;50.954;4.716;2022-11-24T08:00:03;8.00;99.90
35240;DHT22;21376;50.954;4.716;2022-11-24T08:02:33;8.10;99.90
35240;DHT22;21376;50.954;4.716;2022-11-24T08:07:31;8.20;99.90
35240;DHT22;21376;50.954;4.716;2022-11-24T08:09:57;8.30;99.90
35240;DHT22;21376;50.954;4.716;2022-11-24T08:12:26;8.40;99.90
35240;DHT22;21376;50.954;4.716;2022-11-24T08:14:51;8.50;99.90
35240;DHT22;21376;50.954;4.716;2022-11-24T08:17:23;8.60;99.90
35240;DHT22;21376;50.954;4.716;2022-11-24T08:22:20;8.60;99.90
35240;DHT22;21376;50.954;4.716;2022-11-24T08:27:17;8.70;99.90
35240;DHT22;21376;50.954;4.716;2022-11-24T08:29:45;8.70;99.90
35240;DHT22;21376;50.954;4.716;2022-11-24T08:32:11;8.70;99.90
35240;DHT22;21376;50.954;4.716;2022-11-24T08:45:16;9.20;99.90
35240;DHT22;21376;50.954;4.716;2022-11-24T08:47:44;9.10;99.90
35240;DHT22;21376;50.954;4.716;2022-11-24T08:50:12;9.10;99.90
35240;DHT22;21376;50.954;4.716;2022-11-24T08:52:38;9.20;99.90
35240;DHT22;21376;50.954;4.716;2022-11-24T08:55:17;9.20;99.90
35240;DHT22;21376;50.954;4.716;2022-11-24T08:57:45;9.60;99.90
35240;DHT22;21376;50.954;4.716;2022-11-24T09:00:11;10.20;99.90
35240;DHT22;21376;50.954;4.716;2022-11-24T09:02:41;11.20;99.90
35240;DHT22;21376;50.954;4.716;2022-11-24T09:05:13;12.20;99.90
35240;DHT22;21376;50.954;4.716;2022-11-24T09:07:42;12.80;99.90
35240;DHT22;21376;50.954;4.716;2022-11-24T09:10:14;13.40;99.90
35240;DHT22;21376;50.954;4.716;2022-11-24T09:12:43;14.10;99.90
35240;DHT22;21376;50.954;4.716;2022-11-24T09:15:09;14.50;99.90
35240;DHT22;21376;50.954;4.716;2022-11-24T09:17:37;14.20;99.90
35240;DHT22;21376;50.954;4.716;2022-11-24T09:20:09;14.00;99.90
35240;DHT22;21376;50.954;4.716;2022-11-24T09:22:35;13.80;99.90
35240;DHT22;21376;50.954;4.716;2022-11-24T09:25:03;14.10;99.90
35240;DHT22;21376;50.954;4.716;2022-11-24T09:27:32;13.40;99.90
35240;DHT22;21376;50.954;4.716;2022-11-24T09:30:02;13.40;99.90
35240;DHT22;21376;50.954;4.716;2022-11-24T09:32:28;13.90;99.90
35240;DHT22;21376;50.954;4.716;2022-11-24T09:34:57;13.90;99.90
35240;DHT22;21376;50.954;4.716;2022-11-24T09:37:23;14.60;99.90
35240;DHT22;21376;50.954;4.716;2022-11-24T09:39:50;14.60;99.90
35240;DHT22;21376;50.954;4.716;2022-11-24T09:42:20;15.00;99.90
35240;DHT22;21376;50.954;4.716;2022-11-24T09:44:56;14.40;99.90
35240;DHT22;21376;50.954;4.716;2022-11-24T09:50:20;13.70;99.90
35240;DHT22;21376;50.954;4.716;2022-11-24T09:55:43;13.50;99.90
35240;DHT22;21376;50.954;4.716;2022-11-24T10:01:03;12.90;99.90
35240;DHT22;21376;50.954;4.716;2022-11-24T10:03:35;12.60;99.90
35240;DHT22;21376;50.954;4.716;2022-11-24T10:14:47;13.40;99.90
35240;DHT22;21376;50.954;4.716;2022-11-24T10:22:44;14.90;99.90
35240;DHT22;21376;50.954;4.716;2022-11-24T10:25:29;16.10;99.90
35240;DHT22;21376;50.954;4.716;2022-11-24T10:30:28;17.40;99.90
35240;DHT22;21376;50.954;4.716;2022-11-24T10:33:00;17.20;99.90
35240;DHT22;21376;50.954;4.716;2022-11-24T10:35:37;17.60;99.90
35240;DHT22;21376;50.954;4.716;2022-11-24T10:41:00;17.30;99.90
35240;DHT22;21376;50.954;4.716;2022-11-24T10:43:27;18.30;99.90
35240;DHT22;21376;50.954;4.716;2022-11-24T10:48:27;18.90;99.90
35240;DHT22;21376;50.954;4.716;2022-11-24T10:51:16;18.90;99.90
35240;DHT22;21376;50.954;4.716;2022-11-24T10:54:00;18.20;99.90
35240;DHT22;21376;50.954;4.716;2022-11-24T10:56:37;17.30;99.90
35240;DHT22;21376;50.954;4.716;2022-11-24T11:04:52;17.30;99.90
35240;DHT22;21376;50.954;4.716;2022-11-24T11:07:24;17.80;99.90
35240;DHT22;21376;50.954;4.716;2022-11-24T11:12:30;15.60;99.90
35240;DHT22;21376;50.954;4.716;2022-11-24T11:15:14;15.60;99.90
35240;DHT22;21376;50.954;4.716;2022-11-24T11:17:43;14.90;99.90
35240;DHT22;21376;50.954;4.716;2022-11-24T11:20:24;14.90;99.90
35240;DHT22;21376;50.954;4.716;2022-11-24T11:31:05;13.70;99.90
35240;DHT22;21376;50.954;4.716;2022-11-24T11:33:43;14.10;99.90
35240;DHT22;21376;50.954;4.716;2022-11-24T11:36:20;14.30;99.90
35240;DHT22;21376;50.954;4.716;2022-11-24T11:38:47;14.50;99.90
35240;DHT22;21376;50.954;4.716;2022-11-24T11:41:19;14.70;99.90
35240;DHT22;21376;50.954;4.716;2022-11-24T11:43:46;14.70;99.90
35240;DHT22;21376;50.954;4.716;2022-11-24T11:46:16;14.70;99.90
35240;DHT22;21376;50.954;4.716;2022-11-24T11:48:48;14.30;99.90
35240;DHT22;21376;50.954;4.716;2022-11-24T11:54:15;14.00;99.90
35240;DHT22;21376;50.954;4.716;2022-11-24T11:56:47;13.90;99.90
35240;DHT22;21376;50.954;4.716;2022-11-24T11:59:33;14.30;99.90
35240;DHT22;21376;50.954;4.716;2022-11-24T12:07:24;14.40;99.90
35240;DHT22;21376;50.954;4.716;2022-11-24T12:17:48;15.30;99.90
35240;DHT22;21376;50.954;4.716;2022-11-24T12:20:22;15.40;99.90
35240;DHT22;21376;50.954;4.716;2022-11-24T12:22:56;16.10;99.90
35240;DHT22;21376;50.954;4.716;2022-11-24T12:31:04;16.40;99.90
35240;DHT22;21376;50.954;4.716;2022-11-24T12:39:04;15.60;99.90
35240;DHT22;21376;50.954;4.716;2022-11-24T12:44:39;14.10;99.90
35240;DHT22;21376;50.954;4.716;2022-11-24T12:47:11;14.00;99.90
35240;DHT22;21376;50.954;4.716;2022-11-24T12:52:59;13.80;99.90
35240;DHT22;21376;50.954;4.716;2022-11-24T12:55:30;14.40;99.90
35240;DHT22;21376;50.954;4.716;2022-11-24T13:00:29;16.00;99.90
35240;DHT22;21376;50.954;4.716;2022-11-24T13:03:09;16.30;99.90
35240;DHT22;21376;50.954;4.716;2022-11-24T13:05:58;16.50;99.90
35240;DHT22;21376;50.954;4.716;2022-11-24T13:08:27;15.40;99.90
35240;DHT22;21376;50.954;4.716;2022-11-24T13:11:41;15.40;99.90
35240;DHT22;21376;50.954;4.716;2022-11-24T13:16:28;15.00;99.90
35240;DHT22;21376;50.954;4.716;2022-11-24T13:18:58;15.30;99.90
35240;DHT22;21376;50.954;4.716;2022-11-24T13:24:25;16.00;99.90
35240;DHT22;21376;50.954;4.716;2022-11-24T13:29:52;15.60;99.90
35240;DHT22;21376;50.954;4.716;2022-11-24T13:35:01;14.70;99.90
35240;DHT22;21376;50.954;4.716;2022-11-24T13:55:49;14.20;99.90
35240;DHT22;21376;50.954;4.716;2022-11-24T14:03:40;12.70;99.90
35240;DHT22;21376;50.954;4.716;2022-11-24T14:06:14;12.40;99.90
35240;DHT22;21376;50.954;4.716;2022-11-24T14:08:44;12.30;99.90
35240;DHT22;21376;50.954;4.716;2022-11-24T14:11:17;12.20;99.90
35240;DHT22;21376;50.954;4.716;2022-11-24T14:13:57;12.10;99.90
35240;DHT22;21376;50.954;4.716;2022-11-24T14:16:25;12.30;99.90
35240;DHT22;21376;50.954;4.716;2022-11-24T14:18:59;12.20;99.90
35240;DHT22;21376;50.954;4.716;2022-11-24T14:21:34;12.00;99.90
35240;DHT22;21376;50.954;4.716;2022-11-24T14:26:52;12.00;99.90
35240;DHT22;21376;50.954;4.716;2022-11-24T14:29:26;11.90;99.90
35240;DHT22;21376;50.954;4.716;2022-11-24T14:32:01;12.10;99.90
35240;DHT22;21376;50.954;4.716;2022-11-24T14:37:07;11.70;99.90
35240;DHT22;21376;50.954;4.716;2022-11-24T14:42:23;11.60;99.90
35240;DHT22;21376;50.954;4.716;2022-11-24T14:44:56;11.70;99.90
35240;DHT22;21376;50.954;4.716;2022-11-24T14:47:30;11.60;99.90
35240;DHT22;21376;50.954;4.716;2022-11-24T14:52:48;11.70;99.90
35240;DHT22;21376;50.954;4.716;2022-11-24T14:55:29;11.60;99.90
35240;DHT22;21376;50.954;4.716;2022-11-24T14:58:02;11.50;99.90
35240;DHT22;21376;50.954;4.716;2022-11-24T15:00:45;11.30;99.90
35240;DHT22;21376;50.954;4.716;2022-11-24T15:03:30;11.50;99.90
35240;DHT22;21376;50.954;4.716;2022-11-24T15:08:43;11.40;99.90
35240;DHT22;21376;50.954;4.716;2022-11-24T15:11:14;11.30;99.90
35240;DHT22;21376;50.954;4.716;2022-11-24T15:13:49;11.40;99.90
35240;DHT22;21376;50.954;4.716;2022-11-24T15:18:46;11.10;99.90
35240;DHT22;21376;50.954;4.716;2022-11-24T15:21:28;11.00;99.90
35240;DHT22;21376;50.954;4.716;2022-11-24T15:24:14;11.10;99.90
35240;DHT22;21376;50.954;4.716;2022-11-24T15:26:42;11.00;99.90
35240;DHT22;21376;50.954;4.716;2022-11-24T15:29:09;10.90;99.90
35240;DHT22;21376;50.954;4.716;2022-11-24T15:31:38;10.90;99.90
35240;DHT22;21376;50.954;4.716;2022-11-24T15:34:05;10.70;99.90
35240;DHT22;21376;50.954;4.716;2022-11-24T15:36:34;10.70;99.90
35240;DHT22;21376;50.954;4.716;2022-11-24T15:42:17;10.70;99.90
35240;DHT22;21376;50.954;4.716;2022-11-24T15:44:44;10.70;99.90
35240;DHT22;21376;50.954;4.716;2022-11-24T15:47:11;10.60;99.90
35240;DHT22;21376;50.954;4.716;2022-11-24T15:49:46;10.70;99.90
35240;DHT22;21376;50.954;4.716;2022-11-24T15:52:23;10.60;99.90
35240;DHT22;21376;50.954;4.716;2022-11-24T15:57:19;10.50;99.90
35240;DHT22;21376;50.954;4.716;2022-11-24T15:59:46;10.50;99.90
35240;DHT22;21376;50.954;4.716;2022-11-24T16:02:12;10.40;99.90
35240;DHT22;21376;50.954;4.716;2022-11-24T16:04:40;10.30;99.90
35240;DHT22;21376;50.954;4.716;2022-11-24T16:07:13;10.40;99.90
35240;DHT22;21376;50.954;4.716;2022-11-24T16:09:39;10.50;99.90
35240;DHT22;21376;50.954;4.716;2022-11-24T16:20:38;10.10;99.90
35240;DHT22;21376;50.954;4.716;2022-11-24T16:23:06;10.10;99.90
35240;DHT22;21376;50.954;4.716;2022-11-24T16:28:03;10.10;99.90
35240;DHT22;21376;50.954;4.716;2022-11-24T16:30:30;10.10;99.90
35240;DHT22;21376;50.954;4.716;2022-11-24T16:33:01;9.90;99.90
35240;DHT22;21376;50.954;4.716;2022-11-24T16:35:32;9.80;99.90
35240;DHT22;21376;50.954;4.716;2022-11-24T16:41:01;9.70;99.90
35240;DHT22;21376;50.954;4.716;2022-11-24T16:43:27;9.60;99.90
35240;DHT22;21376;50.954;4.716;2022-11-24T16:48:39;9.60;99.90
35240;DHT22;21376;50.954;4.716;2022-11-24T16:51:05;9.70;99.90
35240;DHT22;21376;50.954;4.716;2022-11-24T16:58:35;9.70;99.90
35240;DHT22;21376;50.954;4.716;2022-11-24T17:01:05;9.70;99.90
35240;DHT22;21376;50.954;4.716;2022-11-24T17:08:54;9.50;99.90
35240;DHT22;21376;50.954;4.716;2022-11-24T17:11:36;9.40;99.90
35240;DHT22;21376;50.954;4.716;2022-11-24T17:14:05;9.50;99.90
35240;DHT22;21376;50.954;4.716;2022-11-24T17:16:31;9.40;99.90
35240;DHT22;21376;50.954;4.716;2022-11-24T17:19:04;9.40;99.90
35240;DHT22;21376;50.954;4.716;2022-11-24T17:24:15;9.40;99.90
35240;DHT22;21376;50.954;4.716;2022-11-24T17:26:48;9.40;99.90
35240;DHT22;21376;50.954;4.716;2022-11-24T17:34:23;9.20;99.90
35240;DHT22;21376;50.954;4.716;2022-11-24T17:36:48;9.10;99.90
35240;DHT22;21376;50.954;4.716;2022-11-24T17:39:16;9.10;99.90
35240;DHT22;21376;50.954;4.716;2022-11-24T17:41:45;9.10;99.90
35240;DHT22;21376;50.954;4.716;2022-11-24T17:44:12;9.00;99.90
35240;DHT22;21376;50.954;4.716;2022-11-24T17:46:39;9.00;99.90
35240;DHT22;21376;50.954;4.716;2022-11-24T17:49:05;9.00;99.90
35240;DHT22;21376;50.954;4.716;2022-11-24T17:51:33;9.10;99.90
35240;DHT22;21376;50.954;4.716;2022-11-24T17:54:00;9.10;99.90
35240;DHT22;21376;50.954;4.716;2022-11-24T17:56:26;9.10;99.90
35240;DHT22;21376;50.954;4.716;2022-11-24T18:01:32;8.90;99.90
35240;DHT22;21376;50.954;4.716;2022-11-24T18:06:30;9.00;99.90
35240;DHT22;21376;50.954;4.716;2022-11-24T18:08:56;9.00;99.90
35240;DHT22;21376;50.954;4.716;2022-11-24T18:11:38;9.00;99.90
35240;DHT22;21376;50.954;4.716;2022-11-24T18:17:02;8.90;99.90
35240;DHT22;21376;50.954;4.716;2022-11-24T18:19:32;8.90;99.90
35240;DHT22;21376;50.954;4.716;2022-11-24T18:22:03;8.90;99.90
35240;DHT22;21376;50.954;4.716;2022-11-24T18:24:31;9.00;99.90
35240;DHT22;21376;50.954;4.716;2022-11-24T18:27:02;9.10;99.90
35240;DHT22;21376;50.954;4.716;2022-11-24T18:29:30;8.90;99.90
35240;DHT22;21376;50.954;4.716;2022-11-24T18:31:59;8.80;99.90
35240;DHT22;21376;50.954;4.716;2022-11-24T18:34:26;8.70;99.90
35240;DHT22;21376;50.954;4.716;2022-11-24T18:36:52;8.70;99.90
35240;DHT22;21376;50.954;4.716;2022-11-24T18:39:19;8.90;99.90
35240;DHT22;21376;50.954;4.716;2022-11-24T18:41:45;8.90;99.90
35240;DHT22;21376;50.954;4.716;2022-11-24T18:44:14;8.80;99.90
35240;DHT22;21376;50.954;4.716;2022-11-24T18:46:41;8.80;99.90
35240;DHT22;21376;50.954;4.716;2022-11-24T18:49:08;8.90;99.90
35240;DHT22;21376;50.954;4.716;2022-11-24T18:51:34;8.80;99.90
35240;DHT22;21376;50.954;4.716;2022-11-24T18:56:45;8.80;99.90
35240;DHT22;21376;50.954;4.716;2022-11-24T19:01:42;8.90;99.90
35240;DHT22;21376;50.954;4.716;2022-11-24T19:04:08;9.00;99.90
35240;DHT22;21376;50.954;4.716;2022-11-24T19:09:13;8.80;99.90
35240;DHT22;21376;50.954;4.716;2022-11-24T19:14:14;8.80;99.90
35240;DHT22;21376;50.954;4.716;2022-11-24T19:16:44;8.90;99.90
35240;DHT22;21376;50.954;4.716;2022-11-24T19:19:12;8.90;99.90
35240;DHT22;21376;50.954;4.716;2022-11-24T19:21:43;9.00;99.90
35240;DHT22;21376;50.954;4.716;2022-11-24T19:24:16;9.10;99.90
35240;DHT22;21376;50.954;4.716;2022-11-24T19:29:21;9.30;99.90
35240;DHT22;21376;50.954;4.716;2022-11-24T19:31:49;9.20;99.90
35240;DHT22;21376;50.954;4.716;2022-11-24T19:34:16;9.10;99.90
35240;DHT22;21376;50.954;4.716;2022-11-24T19:36:58;9.20;99.90
35240;DHT22;21376;50.954;4.716;2022-11-24T19:39:24;9.30;99.90
35240;DHT22;21376;50.954;4.716;2022-11-24T19:41:52;9.30;99.90
35240;DHT22;21376;50.954;4.716;2022-11-24T19:44:20;9.20;99.90
35240;DHT22;21376;50.954;4.716;2022-11-24T19:46:54;9.30;99.90
35240;DHT22;21376;50.954;4.716;2022-11-24T19:49:20;9.20;99.90
35240;DHT22;21376;50.954;4.716;2022-11-24T19:51:46;9.20;99.90
35240;DHT22;21376;50.954;4.716;2022-11-24T19:54:15;9.20;99.90
35240;DHT22;21376;50.954;4.716;2022-11-24T19:56:41;9.20;99.90
35240;DHT22;21376;50.954;4.716;2022-11-24T19:59:08;9.10;99.90
35240;DHT22;21376;50.954;4.716;2022-11-24T20:01:37;9.30;99.90
35240;DHT22;21376;50.954;4.716;2022-11-24T20:04:07;9.40;99.90
35240;DHT22;21376;50.954;4.716;2022-11-24T20:06:37;9.40;99.90
35240;DHT22;21376;50.954;4.716;2022-11-24T20:09:09;9.40;99.90
35240;DHT22;21376;50.954;4.716;2022-11-24T20:11:45;9.40;99.90
35240;DHT22;21376;50.954;4.716;2022-11-24T20:14:16;9.40;99.90
35240;DHT22;21376;50.954;4.716;2022-11-24T20:16:47;9.50;99.90
35240;DHT22;21376;50.954;4.716;2022-11-24T20:19:16;9.30;99.90
35240;DHT22;21376;50.954;4.716;2022-11-24T20:21:42;9.40;99.90
35240;DHT22;21376;50.954;4.716;2022-11-24T20:24:17;9.40;99.90
35240;DHT22;21376;50.954;4.716;2022-11-24T20:26:53;9.50;99.90
35240;DHT22;21376;50.954;4.716;2022-11-24T20:29:23;9.40;99.90
35240;DHT22;21376;50.954;4.716;2022-11-24T20:31:51;9.50;99.90
35240;DHT22;21376;50.954;4.716;2022-11-24T20:34:19;9.40;99.90
35240;DHT22;21376;50.954;4.716;2022-11-24T20:36:57;9.40;99.90
35240;DHT22;21376;50.954;4.716;2022-11-24T20:39:33;9.40;99.90
35240;DHT22;21376;50.954;4.716;2022-11-24T20:42:01;9.40;99.90
35240;DHT22;21376;50.954;4.716;2022-11-24T20:49:56;9.50;99.90
35240;DHT22;21376;50.954;4.716;2022-11-24T20:52:31;9.50;99.90
35240;DHT22;21376;50.954;4.716;2022-11-24T20:54:57;9.50;99.90
35240;DHT22;21376;50.954;4.716;2022-11-24T20:57:27;9.60;99.90
35240;DHT22;21376;50.954;4.716;2022-11-24T21:02:31;9.70;99.90
35240;DHT22;21376;50.954;4.716;2022-11-24T21:07:28;9.70;99.90
35240;DHT22;21376;50.954;4.716;2022-11-24T21:15:06;9.80;99.90
35240;DHT22;21376;50.954;4.716;2022-11-24T21:17:34;9.90;99.90
35240;DHT22;21376;50.954;4.716;2022-11-24T21:20:01;9.90;99.90
35240;DHT22;21376;50.954;4.716;2022-11-24T21:22:30;10.00;99.90
35240;DHT22;21376;50.954;4.716;2022-11-24T21:25:08;10.10;99.90
35240;DHT22;21376;50.954;4.716;2022-11-24T21:35:21;10.20;99.90
35240;DHT22;21376;50.954;4.716;2022-11-24T21:37:50;10.10;99.90
35240;DHT22;21376;50.954;4.716;2022-11-24T21:40:18;10.10;99.90
35240;DHT22;21376;50.954;4.716;2022-11-24T21:45:16;10.30;99.90
35240;DHT22;21376;50.954;4.716;2022-11-24T21:47:45;10.40;99.90
35240;DHT22;21376;50.954;4.716;2022-11-24T21:52:41;10.40;99.90
35240;DHT22;21376;50.954;4.716;2022-11-24T21:55:07;10.40;99.90
35240;DHT22;21376;50.954;4.716;2022-11-24T21:57:47;10.40;99.90
35240;DHT22;21376;50.954;4.716;2022-11-24T22:00:13;10.40;99.90
35240;DHT22;21376;50.954;4.716;2022-11-24T22:02:42;10.50;99.90